createdAt,value
2022-12-12T00:01:54.078Z,26.95
2022-12-12T00:04:22.688Z,30.00
2022-12-12T00:06:51.979Z,23.02
2022-12-12T00:09:20.009Z,18.38
2022-12-12T00:11:48.616Z,21.95
2022-12-12T00:14:16.806Z,20.42
2022-12-12T00:16:45.506Z,25.98
2022-12-12T00:19:14.346Z,22.63
2022-12-12T00:21:42.865Z,27.15
2022-12-12T00:24:11.492Z,20.83
2022-12-12T00:26:41.233Z,20.85
2022-12-12T00:29:09.419Z,17.92
2022-12-12T00:31:38.381Z,17.63
2022-12-12T00:34:06.632Z,18.90
2022-12-12T00:36:35.243Z,24.60
2022-12-12T00:39:04.115Z,20.17
2022-12-12T00:41:32.604Z,31.08
2022-12-12T00:44:00.603Z,21.50
2022-12-12T00:46:30.970Z,32.05
2022-12-12T00:48:59.573Z,36.28
2022-12-12T00:51:30.132Z,31.00
2022-12-12T00:53:59.830Z,38.38
2022-12-12T00:56:29.892Z,20.00
2022-12-12T00:58:59.443Z,27.50
2022-12-12T01:01:29.756Z,22.07
2022-12-12T01:04:00.358Z,24.23
2022-12-12T01:06:29.374Z,31.25
2022-12-12T01:08:57.892Z,24.52
2022-12-12T01:11:26.755Z,74.53
2022-12-12T01:13:56.086Z,68.25
2022-12-12T01:16:25.228Z,30.90
2022-12-12T01:18:53.650Z,25.50
2022-12-12T01:21:23.770Z,22.63
2022-12-12T01:23:52.500Z,46.40
2022-12-12T01:26:24.230Z,23.02
2022-12-12T01:28:52.997Z,26.48
2022-12-12T01:31:22.035Z,24.75
2022-12-12T01:33:50.567Z,27.77
2022-12-12T01:36:39.338Z,26.42
2022-12-12T01:39:08.220Z,37.28
2022-12-12T01:41:38.450Z,22.08
2022-12-12T01:44:48.116Z,23.35
2022-12-12T01:47:20.585Z,23.08
2022-12-12T01:50:09.949Z,24.85
2022-12-12T01:52:43.876Z,23.03
2022-12-12T01:55:42.961Z,29.23
2022-12-12T01:58:11.610Z,23.35
2022-12-12T02:00:40.688Z,20.25
2022-12-12T02:03:09.679Z,35.13
2022-12-12T02:05:46.786Z,61.80
2022-12-12T02:08:16.697Z,27.25
2022-12-12T02:10:45.978Z,51.83
2022-12-12T02:13:17.426Z,29.60
2022-12-12T02:16:12.953Z,32.45
2022-12-12T02:19:16.585Z,21.48
2022-12-12T02:22:19.212Z,24.48
2022-12-12T02:25:30.760Z,37.45
2022-12-12T02:28:10.831Z,24.25
2022-12-12T02:31:21.144Z,30.75
2022-12-12T02:34:16.436Z,26.80
2022-12-12T02:36:57.037Z,23.42
2022-12-12T02:39:57.878Z,17.27
2022-12-12T02:42:41.065Z,20.90
2022-12-12T02:46:02.013Z,28.63
2022-12-12T02:48:49.378Z,25.38
2022-12-12T02:51:20.261Z,26.63
2022-12-12T02:53:48.819Z,20.88
2022-12-12T02:56:50.486Z,21.83
2022-12-12T02:59:34.729Z,20.10
2022-12-12T03:02:24.316Z,20.42
2022-12-12T03:05:30.305Z,16.52
2022-12-12T03:08:07.873Z,18.13
2022-12-12T03:10:58.203Z,17.17
2022-12-12T03:13:34.233Z,17.08
2022-12-12T03:16:06.990Z,16.88
2022-12-12T03:19:02.936Z,16.90
2022-12-12T03:21:34.569Z,17.88
2022-12-12T03:24:28.864Z,17.42
2022-12-12T03:27:16.526Z,22.48
2022-12-12T03:30:00.788Z,26.20
2022-12-12T03:32:35.589Z,20.73
2022-12-12T03:35:29.144Z,15.05
2022-12-12T03:38:05.392Z,17.80
2022-12-12T03:40:41.722Z,15.00
2022-12-12T03:43:15.666Z,15.27
2022-12-12T03:45:53.808Z,16.85
2022-12-12T03:48:31.290Z,17.92
2022-12-12T03:51:07.364Z,16.52
2022-12-12T03:53:41.757Z,15.68
2022-12-12T03:56:29.887Z,16.40
2022-12-12T03:59:01.656Z,17.75
2022-12-12T04:01:39.341Z,16.50
2022-12-12T04:04:18.456Z,15.85
2022-12-12T04:06:53.322Z,14.27
2022-12-12T04:09:40.596Z,15.63
2022-12-12T04:12:36.605Z,17.83
2022-12-12T04:15:30.519Z,12.85
2022-12-12T04:18:24.818Z,16.00
2022-12-12T04:21:45.902Z,15.45
2022-12-12T04:24:26.143Z,17.83
2022-12-12T04:27:11.796Z,15.32
2022-12-12T04:29:54.511Z,14.98
2022-12-12T04:32:58.145Z,15.98
2022-12-12T04:35:39.137Z,16.67
2022-12-12T04:38:13.581Z,16.60
2022-12-12T04:40:45.946Z,15.45
2022-12-12T04:43:49.341Z,15.80
2022-12-12T04:46:21.810Z,15.00
2022-12-12T04:48:57.331Z,14.50
2022-12-12T04:51:38.524Z,13.88
2022-12-12T04:54:13.555Z,16.25
2022-12-12T04:56:44.799Z,14.27
2022-12-12T04:59:13.666Z,15.68
2022-12-12T05:02:15.557Z,16.02
2022-12-12T05:05:02.747Z,17.48
2022-12-12T05:07:41.996Z,15.25
2022-12-12T05:10:29.261Z,38.25
2022-12-12T05:13:01.675Z,29.33
2022-12-12T05:15:30.467Z,27.67
2022-12-12T05:18:05.995Z,24.50
2022-12-12T05:20:34.618Z,23.15
2022-12-12T05:23:04.570Z,23.23
2022-12-12T05:25:37.943Z,20.70
2022-12-12T05:28:06.641Z,24.23
2022-12-12T05:30:35.701Z,24.52
2022-12-12T05:33:04.220Z,28.40
2022-12-12T05:35:34.240Z,18.05
2022-12-12T05:38:02.874Z,19.15
2022-12-12T05:40:31.314Z,22.10
2022-12-12T05:42:59.695Z,19.70
2022-12-12T05:45:28.227Z,25.02
2022-12-12T05:48:11.822Z,20.13
2022-12-12T05:50:40.472Z,19.15
2022-12-12T05:53:08.886Z,20.55
2022-12-12T05:55:39.191Z,26.97
2022-12-12T05:58:07.712Z,25.77
2022-12-12T06:00:37.613Z,28.00
2022-12-12T06:03:05.655Z,25.45
2022-12-12T06:05:34.066Z,24.33
2022-12-12T06:08:02.299Z,25.95
2022-12-12T06:10:34.476Z,28.08
2022-12-12T06:13:05.809Z,26.38
2022-12-12T06:15:34.414Z,28.02
2022-12-12T06:18:04.892Z,23.92
2022-12-12T06:20:33.671Z,22.27
2022-12-12T06:23:03.930Z,23.70
2022-12-12T06:25:32.763Z,27.00
2022-12-12T06:28:00.952Z,26.70
2022-12-12T06:30:29.506Z,22.42
2022-12-12T06:32:58.809Z,22.20
2022-12-12T06:35:27.253Z,18.17
2022-12-12T06:37:55.429Z,20.73
2022-12-12T06:40:24.012Z,17.35
2022-12-12T06:42:52.284Z,19.52
2022-12-12T06:45:20.910Z,16.23
2022-12-12T06:47:51.003Z,17.50
2022-12-12T06:52:52.052Z,29.63
2022-12-12T06:55:20.538Z,26.33
2022-12-12T06:57:48.789Z,30.00
2022-12-12T07:00:17.851Z,25.77
2022-12-12T07:02:47.865Z,30.63
2022-12-12T07:05:18.574Z,29.70
2022-12-12T07:07:46.823Z,30.10
2022-12-12T07:10:19.773Z,34.75
2022-12-12T07:12:53.283Z,34.92
2022-12-12T07:15:24.612Z,44.13
2022-12-12T07:17:55.712Z,50.65
2022-12-12T07:20:24.416Z,46.35
2022-12-12T07:22:56.079Z,42.80
2022-12-12T07:25:25.050Z,39.85
2022-12-12T07:27:54.405Z,37.95
2022-12-12T07:30:22.953Z,34.25
2022-12-12T07:32:52.598Z,34.33
2022-12-12T07:35:21.035Z,42.85
2022-12-12T07:37:49.656Z,45.97
2022-12-12T07:40:18.584Z,45.65
2022-12-12T07:42:46.735Z,41.53
2022-12-12T07:45:49.531Z,39.45
2022-12-12T07:48:18.012Z,41.75
2022-12-12T07:50:50.542Z,52.00
2022-12-12T07:53:21.381Z,51.90
2022-12-12T07:55:53.119Z,59.45
2022-12-12T07:58:21.419Z,48.95
2022-12-12T08:00:50.098Z,48.50
2022-12-12T08:03:18.509Z,56.80
2022-12-12T08:05:47.047Z,52.90
2022-12-12T08:08:15.033Z,46.03
2022-12-12T08:10:43.916Z,53.10
2022-12-12T08:13:12.328Z,49.35
2022-12-12T08:15:44.867Z,38.58
2022-12-12T08:18:12.838Z,40.20
2022-12-12T08:20:41.965Z,45.45
2022-12-12T08:23:10.830Z,58.80
2022-12-12T08:25:41.858Z,43.38
2022-12-12T08:28:10.467Z,58.88
2022-12-12T08:30:39.114Z,49.47
2022-12-12T08:33:08.333Z,48.78
2022-12-12T08:35:37.071Z,48.80
2022-12-12T08:38:05.420Z,40.50
2022-12-12T08:41:02.027Z,43.28
2022-12-12T08:43:30.248Z,36.30
2022-12-12T08:46:02.132Z,32.00
2022-12-12T08:48:31.404Z,35.90
2022-12-12T08:51:01.792Z,32.83
2022-12-12T08:53:36.411Z,20.60
2022-12-12T08:56:05.499Z,29.40
2022-12-12T08:58:34.217Z,25.80
2022-12-12T09:01:04.150Z,27.40
2022-12-12T09:03:34.275Z,29.08
2022-12-12T09:06:02.874Z,29.50
2022-12-12T09:08:33.092Z,25.25
2022-12-12T09:13:31.774Z,26.30
2022-12-12T09:16:01.035Z,25.88
2022-12-12T09:18:29.605Z,24.15
2022-12-12T09:21:05.283Z,31.92
2022-12-12T09:23:34.049Z,37.40
2022-12-12T09:26:08.299Z,32.38
2022-12-12T09:28:37.270Z,37.33
2022-12-12T09:31:07.642Z,37.65
2022-12-12T09:33:36.715Z,35.17
2022-12-12T09:36:08.093Z,45.30
2022-12-12T09:38:37.263Z,41.60
2022-12-12T09:41:10.258Z,40.75
2022-12-12T09:43:51.991Z,40.40
2022-12-12T09:46:25.836Z,50.38
2022-12-12T09:49:17.160Z,38.95
2022-12-12T09:51:49.837Z,36.03
2022-12-12T09:54:26.896Z,34.13
2022-12-12T09:56:58.510Z,30.63
2022-12-12T09:59:39.708Z,27.02
2022-12-12T10:02:38.005Z,35.13
2022-12-12T10:05:37.175Z,43.33
2022-12-12T10:08:28.173Z,32.78
2022-12-12T10:11:07.552Z,32.08
2022-12-12T10:13:37.852Z,33.30
2022-12-12T10:16:10.124Z,35.10
2022-12-12T10:18:49.413Z,34.30
2022-12-12T10:21:30.780Z,33.08
2022-12-12T10:24:30.415Z,36.63
2022-12-12T10:27:13.388Z,33.40
2022-12-12T10:29:48.984Z,28.60
2022-12-12T10:32:45.714Z,29.23
2022-12-12T10:35:39.107Z,27.33
2022-12-12T10:38:50.981Z,28.40
2022-12-12T10:41:40.685Z,31.55
2022-12-12T10:44:25.926Z,48.35
2022-12-12T10:47:06.843Z,44.53
2022-12-12T10:49:35.866Z,45.38
2022-12-12T10:52:20.785Z,47.63
2022-12-12T10:55:00.700Z,45.30
2022-12-12T10:57:36.692Z,39.95
2022-12-12T11:00:27.344Z,38.20
2022-12-12T11:03:00.415Z,37.70
2022-12-12T11:05:34.793Z,47.45
2022-12-12T11:08:06.341Z,38.38
2022-12-12T11:10:36.733Z,44.55
2022-12-12T11:13:16.674Z,52.97
2022-12-12T11:16:14.646Z,80.13
2022-12-12T11:18:57.829Z,75.00
2022-12-12T11:21:28.722Z,82.72
2022-12-12T11:23:58.611Z,90.80
2022-12-12T11:26:29.371Z,345.67
2022-12-12T11:29:03.473Z,331.13
2022-12-12T11:31:34.928Z,337.77
2022-12-12T11:34:06.631Z,344.45
2022-12-12T11:36:38.023Z,307.83
2022-12-12T11:39:28.762Z,205.32
2022-12-12T11:42:06.240Z,224.55
2022-12-12T11:44:37.717Z,429.60
2022-12-12T11:47:26.279Z,565.03
2022-12-12T11:49:59.277Z,351.15
2022-12-12T11:52:32.042Z,178.73
2022-12-12T11:55:01.733Z,220.95
2022-12-12T11:58:03.676Z,228.48
2022-12-12T12:00:48.631Z,100.32
2022-12-12T12:03:27.548Z,55.05
2022-12-12T12:06:17.923Z,51.67
2022-12-12T12:08:48.996Z,49.50
2022-12-12T12:11:47.080Z,69.40
2022-12-12T12:14:36.346Z,55.38
2022-12-12T12:17:04.770Z,56.00
2022-12-12T12:19:51.261Z,62.03
2022-12-12T12:22:31.237Z,55.53
2022-12-12T12:25:26.198Z,53.30
2022-12-12T12:28:07.703Z,65.65
2022-12-12T12:33:13.939Z,117.45
2022-12-12T12:36:34.311Z,105.55
2022-12-12T12:39:29.150Z,177.23
2022-12-12T12:42:24.589Z,173.63
2022-12-12T12:44:55.362Z,391.33
2022-12-12T12:48:07.249Z,237.65
2022-12-12T12:50:48.816Z,260.05
2022-12-12T12:53:25.691Z,191.23
2022-12-12T12:56:00.326Z,107.47
2022-12-12T12:58:43.311Z,76.35
2022-12-12T13:01:29.427Z,57.42
2022-12-12T13:04:02.916Z,59.95
2022-12-12T13:06:34.282Z,54.38
2022-12-12T13:09:24.280Z,48.80
2022-12-12T13:12:12.461Z,51.40
2022-12-12T13:15:14.756Z,42.70
2022-12-12T13:18:04.858Z,39.92
2022-12-12T13:20:38.460Z,56.42
2022-12-12T13:23:57.144Z,53.72
2022-12-12T13:26:25.668Z,51.40
2022-12-12T13:29:16.210Z,55.92
2022-12-12T13:32:20.924Z,315.77
2022-12-12T13:34:57.348Z,296.15
2022-12-12T13:37:26.653Z,255.82
2022-12-12T13:40:06.941Z,309.92
2022-12-12T13:43:07.203Z,433.63
2022-12-12T13:45:40.078Z,514.00
2022-12-12T13:48:45.988Z,323.40
2022-12-12T13:51:37.555Z,337.40
2022-12-12T13:54:13.082Z,427.58
2022-12-12T13:56:52.923Z,350.60
2022-12-12T13:59:24.020Z,335.05
2022-12-12T14:02:03.247Z,342.83
2022-12-12T14:04:36.902Z,260.33
2022-12-12T14:07:19.591Z,189.77
2022-12-12T14:09:52.152Z,175.02
2022-12-12T14:12:31.821Z,90.43
2022-12-12T14:15:06.474Z,76.97
2022-12-12T14:17:42.606Z,59.05
2022-12-12T14:20:26.380Z,66.40
2022-12-12T14:23:06.856Z,62.17
2022-12-12T14:25:38.284Z,57.08
2022-12-12T14:28:20.571Z,65.78
2022-12-12T14:30:56.626Z,54.45
2022-12-12T14:33:35.691Z,62.58
2022-12-12T14:36:27.965Z,61.92
2022-12-12T14:39:43.545Z,64.93
2022-12-12T14:42:26.475Z,72.53
2022-12-12T14:44:54.843Z,78.38
2022-12-12T14:47:22.814Z,79.63
2022-12-12T14:50:09.742Z,87.18
2022-12-12T14:52:37.875Z,67.60
2022-12-12T14:55:06.747Z,76.68
2022-12-12T14:57:35.527Z,82.50
2022-12-12T15:00:13.481Z,103.35
2022-12-12T15:02:41.569Z,77.97
2022-12-12T15:05:09.897Z,57.60
2022-12-12T15:07:59.901Z,58.88
2022-12-12T15:10:30.879Z,228.73
2022-12-12T15:12:58.997Z,184.80
2022-12-12T15:15:32.152Z,725.20
2022-12-12T15:18:01.650Z,904.10
2022-12-12T15:20:32.525Z,476.27
2022-12-12T15:23:02.195Z,228.15
2022-12-12T15:25:38.644Z,193.80
2022-12-12T15:28:06.977Z,431.73
2022-12-12T15:30:41.422Z,921.50
2022-12-12T15:33:17.729Z,466.55
2022-12-12T15:36:01.951Z,474.77
2022-12-12T15:38:32.477Z,311.23
2022-12-12T15:41:09.595Z,205.50
2022-12-12T15:43:43.425Z,184.50
2022-12-12T15:46:17.739Z,150.15
2022-12-12T15:48:49.357Z,130.52
2022-12-12T15:51:24.597Z,107.93
2022-12-12T15:53:55.664Z,95.70
2022-12-12T15:59:16.450Z,120.95
2022-12-12T16:01:44.777Z,94.60
2022-12-12T16:04:12.670Z,109.43
2022-12-12T16:06:42.966Z,214.82
2022-12-12T16:09:11.019Z,243.65
2022-12-12T16:11:51.766Z,452.85
2022-12-12T16:14:37.301Z,231.90
2022-12-12T16:17:19.631Z,236.25
2022-12-12T16:19:59.658Z,240.30
2022-12-12T16:22:40.059Z,245.15
2022-12-12T16:25:26.330Z,187.85
2022-12-12T16:28:10.295Z,192.48
2022-12-12T16:30:42.961Z,115.95
2022-12-12T16:33:36.522Z,155.32
2022-12-12T16:36:13.918Z,141.48
2022-12-12T16:38:43.920Z,130.93
2022-12-12T16:41:17.721Z,105.35
2022-12-12T16:43:46.512Z,191.23
2022-12-12T16:46:23.366Z,896.53
2022-12-12T16:48:53.067Z,415.95
2022-12-12T16:51:32.670Z,614.80
2022-12-12T16:54:01.185Z,301.67
2022-12-12T16:56:29.166Z,218.77
2022-12-12T16:59:03.455Z,284.42
2022-12-12T17:01:35.847Z,257.75
2022-12-12T17:04:15.979Z,210.73
2022-12-12T17:06:43.898Z,199.27
2022-12-12T17:09:12.177Z,138.40
2022-12-12T17:11:43.151Z,119.07
2022-12-12T17:14:23.292Z,116.10
2022-12-12T17:16:51.696Z,191.63
2022-12-12T17:19:20.755Z,180.45
2022-12-12T17:21:48.868Z,240.02
2022-12-12T17:24:17.308Z,126.28
2022-12-12T17:26:45.366Z,111.72
2022-12-12T17:29:13.666Z,96.68
2022-12-12T17:31:41.737Z,163.88
2022-12-12T17:34:11.463Z,385.40
2022-12-12T17:36:39.491Z,276.20
2022-12-12T17:39:07.968Z,176.77
2022-12-12T17:41:36.824Z,210.35
2022-12-12T17:44:05.892Z,170.65
2022-12-12T17:46:34.096Z,129.18
2022-12-12T17:49:03.556Z,133.95
2022-12-12T17:51:32.328Z,116.50
2022-12-12T17:54:01.407Z,129.18
2022-12-12T17:56:30.930Z,92.32
2022-12-12T17:58:59.259Z,98.22
2022-12-12T18:01:29.387Z,100.10
2022-12-12T18:04:04.879Z,79.13
2022-12-12T18:06:42.156Z,79.15
2022-12-12T18:09:10.729Z,107.03
2022-12-12T18:11:39.350Z,134.02
2022-12-12T18:14:09.047Z,109.55
2022-12-12T18:16:37.109Z,75.55
2022-12-12T18:19:05.720Z,49.78
2022-12-12T18:24:25.622Z,63.67
2022-12-12T18:26:55.648Z,64.97
2022-12-12T18:29:26.081Z,39.47
2022-12-12T18:31:57.963Z,60.42
2022-12-12T18:34:27.214Z,78.25
2022-12-12T18:36:55.304Z,36.45
2022-12-12T18:39:25.298Z,34.38
2022-12-12T18:41:53.521Z,31.33
2022-12-12T18:44:22.544Z,39.53
2022-12-12T18:46:52.239Z,54.28
2022-12-12T18:49:21.022Z,59.15
2022-12-12T18:51:49.251Z,75.97
2022-12-12T18:54:18.949Z,335.00
2022-12-12T18:56:48.037Z,421.27
2022-12-12T18:59:17.730Z,205.60
2022-12-12T19:01:46.388Z,259.67
2022-12-12T19:04:22.483Z,180.25
2022-12-12T19:06:52.794Z,82.93
2022-12-12T19:09:23.485Z,114.88
2022-12-12T19:11:56.870Z,67.22
2022-12-12T19:14:45.780Z,60.67
2022-12-12T19:17:25.337Z,66.82
2022-12-12T19:19:54.751Z,142.10
2022-12-12T19:25:17.583Z,211.80
2022-12-12T19:27:46.230Z,152.48
2022-12-12T19:30:16.478Z,146.25
2022-12-12T19:32:49.181Z,184.23
2022-12-12T19:35:18.290Z,116.82
2022-12-12T19:37:46.477Z,92.38
2022-12-12T19:40:16.049Z,69.82
2022-12-12T19:42:44.586Z,85.55
2022-12-12T19:45:13.201Z,63.50
2022-12-12T19:47:41.790Z,92.80
2022-12-12T19:50:10.976Z,61.70
2022-12-12T19:52:39.454Z,63.00
2022-12-12T19:55:08.257Z,126.25
2022-12-12T19:57:36.205Z,51.40
2022-12-12T20:00:05.214Z,28.45
2022-12-12T20:02:37.993Z,26.13
2022-12-12T20:05:15.858Z,25.48
2022-12-12T20:07:44.028Z,41.08
2022-12-12T20:10:13.701Z,27.30
2022-12-12T20:12:51.811Z,217.45
2022-12-12T20:15:25.986Z,174.35
2022-12-12T20:17:53.865Z,154.93
2022-12-12T20:20:22.137Z,200.73
2022-12-12T20:22:50.571Z,125.07
2022-12-12T20:25:18.913Z,162.40
2022-12-12T20:27:47.181Z,157.48
2022-12-12T20:30:16.534Z,249.57
2022-12-12T20:32:46.287Z,589.95
2022-12-12T20:35:15.361Z,284.95
2022-12-12T20:37:43.465Z,208.13
2022-12-12T20:40:13.104Z,141.88
2022-12-12T20:42:41.654Z,191.93
2022-12-12T20:45:10.174Z,63.72
2022-12-12T20:47:38.080Z,72.15
2022-12-12T20:50:06.894Z,58.67
2022-12-12T20:52:34.803Z,44.95
2022-12-12T20:55:03.337Z,29.83
2022-12-12T20:57:31.865Z,26.27
2022-12-12T21:00:00.545Z,25.67
2022-12-12T21:02:30.395Z,47.88
2022-12-12T21:05:00.473Z,35.15
2022-12-12T21:07:28.391Z,33.80
2022-12-12T21:09:57.202Z,35.85
2022-12-12T21:12:25.450Z,32.45
2022-12-12T21:14:57.176Z,36.22
2022-12-12T21:17:29.289Z,48.00
2022-12-12T21:20:01.757Z,35.20
2022-12-12T21:22:34.881Z,38.22
2022-12-12T21:25:04.002Z,26.75
2022-12-12T21:27:33.491Z,31.92
2022-12-12T21:30:04.870Z,25.63
2022-12-12T21:35:01.638Z,32.97
2022-12-12T21:37:30.042Z,35.90
2022-12-12T21:39:58.251Z,48.42
2022-12-12T21:42:26.117Z,31.20
2022-12-12T21:44:54.374Z,29.67
2022-12-12T21:47:22.299Z,44.58
2022-12-12T21:49:50.641Z,38.35
2022-12-12T21:52:18.831Z,31.42
2022-12-12T21:54:47.046Z,32.00
2022-12-12T21:57:19.585Z,31.10
2022-12-12T21:59:51.728Z,28.15
2022-12-12T22:02:20.198Z,35.65
2022-12-12T22:04:48.720Z,36.83
2022-12-12T22:07:18.314Z,34.40
2022-12-12T22:09:56.954Z,35.90
2022-12-12T22:12:37.191Z,34.28
2022-12-12T22:15:05.899Z,43.67
2022-12-12T22:17:33.815Z,31.55
2022-12-12T22:20:02.150Z,26.70
2022-12-12T22:22:30.079Z,25.48
2022-12-12T22:24:59.199Z,26.25
2022-12-12T22:27:27.757Z,23.90
2022-12-12T22:29:56.523Z,24.63
2022-12-12T22:32:24.811Z,23.60
2022-12-12T22:34:53.889Z,24.55
2022-12-12T22:37:22.214Z,29.63
2022-12-12T22:39:50.458Z,27.27
2022-12-12T22:42:19.585Z,27.10
2022-12-12T22:44:49.074Z,34.47
2022-12-12T22:47:17.764Z,48.60
2022-12-12T22:49:46.844Z,29.90
2022-12-12T22:52:15.117Z,20.65
2022-12-12T22:54:44.152Z,25.90
2022-12-12T22:57:12.447Z,30.42
2022-12-12T22:59:42.690Z,26.65
2022-12-12T23:02:25.153Z,29.13
2022-12-12T23:04:55.363Z,25.08
2022-12-12T23:07:23.574Z,26.52
2022-12-12T23:09:54.538Z,26.45
2022-12-12T23:12:23.507Z,24.55
2022-12-12T23:14:52.467Z,29.85
2022-12-12T23:17:21.617Z,26.80
2022-12-12T23:19:50.021Z,22.92
2022-12-12T23:22:18.669Z,25.45
2022-12-12T23:24:49.366Z,37.10
2022-12-12T23:27:18.228Z,25.08
2022-12-12T23:29:47.094Z,28.05
2022-12-12T23:32:15.489Z,23.75
2022-12-12T23:34:45.723Z,24.65
2022-12-12T23:37:13.538Z,24.73
2022-12-12T23:39:41.820Z,25.52
2022-12-12T23:42:09.712Z,29.95
2022-12-12T23:44:38.610Z,44.42
2022-12-12T23:47:06.671Z,33.40
2022-12-12T23:49:34.906Z,27.58
2022-12-12T23:52:02.911Z,20.58
2022-12-12T23:54:46.494Z,19.60
2022-12-12T23:57:14.342Z,20.25
2022-12-12T23:59:42.688Z,20.17
